Time;durP1;ratioP1;P1;durP2;ratioP2;P2;SDS_P1;SDS_P2;PMS_P1;PMS_P2;Temp;Humidity;BMP_temperature;BMP_pressure;BME280_temperature;BME280_humidity;BME280_pressure;Samples;Min_cycle;Max_cycle;Signal;HPM_P1;HPM_P2
2021/07/15 00:03:11;;;;;;;2.20;1.30;;;19.60;42.50;;;;;;10446739;28;20719;-74
2021/07/15 00:08:17;;;;;;;1.20;1.10;;;19.60;42.30;;;;;;10445857;28;20231;-73
2021/07/15 00:13:22;;;;;;;1.10;1.10;;;19.50;42.50;;;;;;10453754;28;20228;-73
2021/07/15 00:18:28;;;;;;;1.10;1.10;;;19.60;42.70;;;;;;10444108;28;20248;-73
2021/07/15 00:23:31;;;;;;;2.30;1.40;;;19.60;42.60;;;;;;10438352;28;20224;-73
2021/07/15 00:28:35;;;;;;;1.30;1.20;;;19.60;42.50;;;;;;10445409;28;20233;-73
2021/07/15 00:33:39;;;;;;;1.50;1.40;;;19.60;42.70;;;;;;10437265;28;20243;-74
2021/07/15 00:38:42;;;;;;;1.60;1.50;;;19.70;42.50;;;;;;10439239;28;20811;-73
2021/07/15 00:43:47;;;;;;;1.50;1.40;;;19.70;42.40;;;;;;10449542;28;20217;-74
2021/07/15 00:48:50;;;;;;;1.50;1.40;;;19.60;42.50;;;;;;10439402;28;20228;-73
2021/07/15 00:53:53;;;;;;;2.40;1.37;;;19.60;42.30;;;;;;10441442;28;20224;-73
2021/07/15 00:58:58;;;;;;;1.60;1.47;;;19.60;42.30;;;;;;10445462;28;20638;-73
2021/07/15 01:04:01;;;;;;;1.90;1.47;;;19.60;42.50;;;;;;10443343;28;20594;-73
2021/07/15 01:09:04;;;;;;;2.47;1.80;;;19.50;42.20;;;;;;10445855;28;20227;-73
2021/07/15 01:14:15;;;;;;;2.53;1.90;;;19.40;42.20;;;;;;10443115;28;20717;-73
2021/07/15 01:20:01;;;;;;;2.03;1.93;;;19.30;42.70;;;;;;10445892;28;20235;-73
2021/07/15 01:25:40;;;;;;;1.50;1.40;;;19.20;42.50;;;;;;10433093;28;20260;-73
2021/07/15 01:30:46;;;;;;;1.70;1.60;;;19.10;42.60;;;;;;10439366;28;20228;-74
2021/07/15 01:35:52;;;;;;;1.80;1.40;;;19.00;42.80;;;;;;10458491;28;20232;-73
2021/07/15 01:41:02;;;;;;;1.53;1.43;;;19.00;42.60;;;;;;10451768;28;20240;-74
2021/07/15 01:46:08;;;;;;;1.37;1.27;;;18.90;43.20;;;;;;10454490;28;20220;-73
2021/07/15 01:51:12;;;;;;;1.40;1.30;;;18.90;43.10;;;;;;10451511;28;20233;-74
2021/07/15 01:56:17;;;;;;;2.97;1.40;;;19.00;43.20;;;;;;10452739;28;20228;-73
2021/07/15 02:01:23;;;;;;;1.50;1.40;;;19.00;43.10;;;;;;10451504;28;20777;-74
2021/07/15 02:06:28;;;;;;;1.80;1.70;;;19.10;43.20;;;;;;10454234;28;20221;-73
2021/07/15 02:11:33;;;;;;;1.73;1.50;;;19.20;43.00;;;;;;10452634;28;20720;-73
2021/07/15 02:16:40;;;;;;;2.90;2.60;;;19.20;42.90;;;;;;10448073;28;20232;-73
2021/07/15 02:21:45;;;;;;;5.43;2.60;;;19.20;43.20;;;;;;10453166;28;20278;-73
2021/07/15 02:26:51;;;;;;;3.23;2.17;;;19.20;42.60;;;;;;10448365;28;20233;-74
2021/07/15 02:32:00;;;;;;;1.80;1.70;;;19.20;43.00;;;;;;10444188;28;20236;-73
2021/07/15 02:37:05;;;;;;;1.60;1.50;;;19.10;43.10;;;;;;10451669;28;20255;-73
2021/07/15 02:42:09;;;;;;;2.30;1.40;;;19.00;42.80;;;;;;10452407;28;20238;-73
2021/07/15 02:47:13;;;;;;;1.13;1.13;;;19.00;42.70;;;;;;10450888;28;20618;-73
2021/07/15 02:52:18;;;;;;;1.10;1.10;;;18.90;43.10;;;;;;10454370;28;20232;-73
2021/07/15 02:57:28;;;;;;;1.80;1.17;;;18.90;43.10;;;;;;10455456;28;20232;-73
2021/07/15 03:02:38;;;;;;;1.23;1.13;;;18.90;43.70;;;;;;10456050;28;20869;-74
2021/07/15 03:07:48;;;;;;;2.43;1.20;;;18.90;43.80;;;;;;10447122;28;20224;-73
2021/07/15 03:12:52;;;;;;;3.17;1.87;;;18.90;43.80;;;;;;10452844;28;20225;-74
2021/07/15 03:17:57;;;;;;;4.20;2.20;;;19.00;43.50;;;;;;10448541;28;20228;-73
2021/07/15 03:23:03;;;;;;;5.23;2.30;;;19.00;43.50;;;;;;10452098;28;20232;-73
2021/07/15 03:28:10;;;;;;;2.93;2.03;;;19.00;43.30;;;;;;10447200;28;20224;-73
2021/07/15 03:33:15;;;;;;;2.23;1.70;;;19.00;43.60;;;;;;10444206;28;20601;-73
2021/07/15 03:38:19;;;;;;;2.03;1.50;;;19.00;43.80;;;;;;10451400;28;20915;-73
2021/07/15 03:43:23;;;;;;;4.03;1.70;;;19.10;43.40;;;;;;10445908;28;20233;-73
2021/07/15 03:48:29;;;;;;;3.17;1.70;;;19.00;43.40;;;;;;10453139;28;20594;-73
2021/07/15 03:53:33;;;;;;;2.20;1.50;;;19.10;43.70;;;;;;10450085;28;20585;-73
2021/07/15 03:58:41;;;;;;;2.60;1.20;;;19.10;43.50;;;;;;10448497;28;20225;-73
2021/07/15 04:03:48;;;;;;;1.30;1.20;;;19.00;43.70;;;;;;10453669;28;20729;-73
2021/07/15 04:08:52;;;;;;;2.40;1.30;;;19.10;43.80;;;;;;10445213;28;20229;-73
2021/07/15 04:13:57;;;;;;;1.30;1.20;;;19.00;43.20;;;;;;10448816;28;20957;-73
2021/07/15 04:19:06;;;;;;;2.60;1.30;;;19.00;43.30;;;;;;10442711;28;20269;-74
2021/07/15 04:24:10;;;;;;;1.43;1.30;;;19.00;43.90;;;;;;10451625;28;20217;-73
2021/07/15 04:29:16;;;;;;;1.37;1.20;;;19.00;43.70;;;;;;10441085;28;20221;-73
2021/07/15 04:34:22;;;;;;;7.33;1.80;;;19.00;43.90;;;;;;10450435;28;20228;-73
2021/07/15 04:39:27;;;;;;;2.43;1.70;;;19.00;44.10;;;;;;10445054;28;20704;-73
2021/07/15 04:44:31;;;;;;;2.10;1.47;;;19.00;43.90;;;;;;10446028;28;20228;-74
2021/07/15 04:49:36;;;;;;;1.10;1.03;;;19.00;44.00;;;;;;10443449;28;20225;-73
2021/07/15 04:54:41;;;;;;;2.30;1.17;;;19.00;44.10;;;;;;10440911;28;20228;-73
2021/07/15 04:59:45;;;;;;;1.40;1.30;;;19.10;44.20;;;;;;10440731;28;20228;-76
2021/07/15 05:04:49;;;;;;;1.70;1.20;;;19.10;44.40;;;;;;10447493;28;20232;-73
2021/07/15 05:09:52;;;;;;;3.00;1.37;;;19.20;44.80;;;;;;10444905;28;20236;-73
2021/07/15 05:14:55;;;;;;;2.33;1.40;;;19.20;44.50;;;;;;10440068;28;20216;-73
2021/07/15 05:20:00;;;;;;;1.50;1.20;;;19.30;44.60;;;;;;10438099;28;20248;-74
2021/07/15 05:25:05;;;;;;;1.43;0.83;;;19.30;44.70;;;;;;10429789;28;20231;-73
2021/07/15 05:30:10;;;;;;;0.67;0.67;;;19.40;44.60;;;;;;10441805;28;20236;-73
2021/07/15 05:35:15;;;;;;;0.50;0.50;;;19.40;44.40;;;;;;10443858;28;20233;-73
2021/07/15 05:40:18;;;;;;;1.37;0.57;;;19.50;44.50;;;;;;10440782;28;20227;-73
2021/07/15 05:45:22;;;;;;;0.37;0.37;;;19.60;44.10;;;;;;10443351;28;22244;-70
2021/07/15 05:50:27;;;;;;;0.30;0.30;;;19.70;43.50;;;;;;10441638;28;20591;-73
2021/07/15 05:55:31;;;;;;;1.13;0.37;;;19.80;43.70;;;;;;10439583;28;20228;-73
2021/07/15 06:00:34;;;;;;;0.40;0.40;;;19.90;43.70;;;;;;10442013;28;20256;-73
2021/07/15 06:05:39;;;;;;;0.40;0.40;;;20.00;43.20;;;;;;10438059;28;20657;-73
2021/07/15 06:10:42;;;;;;;0.50;0.50;;;20.10;42.90;;;;;;10448302;28;20228;-73
2021/07/15 06:15:45;;;;;;;0.30;0.30;;;20.20;42.90;;;;;;10448257;28;20228;-73
2021/07/15 06:20:50;;;;;;;0.30;0.30;;;20.30;42.90;;;;;;10443005;28;20227;-73
2021/07/15 06:25:53;;;;;;;0.87;0.40;;;20.40;42.80;;;;;;10441738;28;20260;-73
2021/07/15 06:30:57;;;;;;;0.60;0.60;;;20.60;42.20;;;;;;10434628;28;20242;-73
2021/07/15 06:36:01;;;;;;;0.33;0.33;;;20.70;42.10;;;;;;10434428;28;20235;-73
2021/07/15 06:41:06;;;;;;;0.67;0.40;;;20.70;41.50;;;;;;10440715;28;20252;-73
2021/07/15 06:46:10;;;;;;;0.40;0.40;;;20.70;41.40;;;;;;10442804;28;20221;-73
2021/07/15 06:51:15;;;;;;;0.40;0.40;;;20.80;41.40;;;;;;10443405;28;20311;-73
2021/07/15 06:56:18;;;;;;;0.40;0.40;;;20.80;41.00;;;;;;10454255;28;20308;-73
2021/07/15 07:01:22;;;;;;;0.60;0.60;;;20.80;41.30;;;;;;10446616;28;20641;-73
2021/07/15 07:06:26;;;;;;;0.50;0.50;;;20.90;42.00;;;;;;10450916;28;20228;-73
2021/07/15 07:11:29;;;;;;;0.30;0.30;;;21.10;41.30;;;;;;10453419;28;20252;-73
2021/07/15 07:16:33;;;;;;;0.53;0.50;;;21.10;40.80;;;;;;10445883;28;20582;-73
2021/07/15 07:21:37;;;;;;;0.50;0.50;;;21.10;40.80;;;;;;10447584;28;20233;-73
2021/07/15 07:26:40;;;;;;;0.40;0.40;;;21.00;40.80;;;;;;10441200;28;20826;-73
2021/07/15 07:31:44;;;;;;;0.30;0.30;;;21.00;41.20;;;;;;10446940;28;20221;-73
2021/07/15 07:36:52;;;;;;;0.50;0.50;;;20.90;41.60;;;;;;10458262;28;20224;-72
2021/07/15 07:41:55;;;;;;;0.40;0.40;;;20.90;41.80;;;;;;10444455;28;20247;-73
2021/07/15 07:47:00;;;;;;;0.40;0.40;;;20.80;42.10;;;;;;10444311;28;20331;-73
2021/07/15 07:52:05;;;;;;;0.30;0.30;;;20.70;42.60;;;;;;10449226;28;20319;-72
2021/07/15 07:57:09;;;;;;;0.50;0.50;;;20.70;41.40;;;;;;10445441;28;20221;-73
2021/07/15 08:02:13;;;;;;;0.50;0.50;;;20.70;41.80;;;;;;10434754;28;20725;-73
2021/07/15 08:07:18;;;;;;;0.40;0.40;;;20.70;41.70;;;;;;10440556;28;20228;-73
2021/07/15 08:12:21;;;;;;;0.60;0.60;;;20.70;41.60;;;;;;10449144;28;20338;-73
2021/07/15 08:17:25;;;;;;;0.60;0.60;;;20.60;41.60;;;;;;10440550;28;21258;-73
2021/07/15 08:22:29;;;;;;;0.50;0.50;;;20.40;41.50;;;;;;10441861;28;20227;-73
2021/07/15 08:27:33;;;;;;;0.40;0.40;;;20.30;42.00;;;;;;10449776;28;20236;-73
2021/07/15 08:32:36;;;;;;;0.50;0.50;;;20.30;42.50;;;;;;10442323;28;20716;-73
2021/07/15 08:38:01;;;;;;;0.43;0.43;;;20.30;42.70;;;;;;10446153;28;20235;-73
2021/07/15 08:43:06;;;;;;;0.40;0.40;;;20.30;42.70;;;;;;10437729;28;20689;-73
2021/07/15 08:48:11;;;;;;;0.40;0.40;;;20.30;42.70;;;;;;10445863;28;20248;-68
2021/07/15 08:53:20;;;;;;;0.30;0.30;;;20.30;42.00;;;;;;10443187;28;20331;-68
2021/07/15 08:58:23;;;;;;;0.30;0.30;;;20.30;42.40;;;;;;10451622;28;20228;-67
2021/07/15 09:03:26;;;;;;;0.40;0.40;;;20.20;42.50;;;;;;10437969;28;20225;-67
2021/07/15 09:08:32;;;;;;;0.30;0.30;;;20.20;42.50;;;;;;10449255;28;20231;-68
2021/07/15 09:13:36;;;;;;;0.40;0.40;;;20.20;42.30;;;;;;10440112;28;20224;-67
2021/07/15 09:18:54;;;;;;;0.40;0.40;;;20.20;42.60;;;;;;10440780;28;20217;-68
2021/07/15 09:23:59;;;;;;;0.67;0.50;;;20.20;42.80;;;;;;10445545;28;20233;-67
2021/07/15 09:29:14;;;;;;;0.47;0.40;;;20.30;42.60;;;;;;10443394;28;20627;-68
2021/07/15 09:34:17;;;;;;;0.60;0.60;;;20.30;43.00;;;;;;10440621;28;20248;-68
2021/07/15 09:39:23;;;;;;;0.50;0.50;;;20.40;42.70;;;;;;10437721;28;20229;-68
2021/07/15 09:44:30;;;;;;;0.40;0.40;;;20.40;43.00;;;;;;10443226;28;20236;-67
2021/07/15 09:49:34;;;;;;;0.60;0.60;;;20.50;42.90;;;;;;10440301;28;21900;-68
2021/07/15 09:54:39;;;;;;;2.30;0.60;;;20.50;42.30;;;;;;10443844;28;20229;-67
2021/07/15 09:59:51;;;;;;;0.77;0.30;;;20.50;42.60;;;;;;10443182;28;20244;-67
2021/07/15 10:04:55;;;;;;;0.70;0.57;;;20.60;42.80;;;;;;10446485;28;20233;-67
2021/07/15 10:10:18;;;;;;;0.60;0.60;;;20.70;42.70;;;;;;10443417;28;20232;-74
2021/07/15 10:15:21;;;;;;;1.43;0.70;;;20.70;42.10;;;;;;10429519;28;21769;-74
2021/07/15 10:20:25;;;;;;;0.60;0.60;;;20.80;42.40;;;;;;10435394;28;20247;-74
2021/07/15 10:25:30;;;;;;;0.50;0.50;;;20.80;42.10;;;;;;10437952;28;20229;-74
2021/07/15 10:30:33;;;;;;;0.80;0.60;;;20.90;42.10;;;;;;10446554;28;20229;-74
2021/07/15 10:35:36;;;;;;;0.50;0.50;;;20.90;42.60;;;;;;10442461;28;20217;-74
2021/07/15 10:40:41;;;;;;;0.50;0.50;;;21.10;42.40;;;;;;10442353;28;20598;-74
2021/07/15 10:45:46;;;;;;;0.60;0.60;;;21.10;41.60;;;;;;10441816;28;20220;-74
2021/07/15 10:50:49;;;;;;;0.40;0.40;;;21.10;41.50;;;;;;10443298;28;20848;-74
2021/07/15 10:55:54;;;;;;;0.97;0.57;;;21.10;41.40;;;;;;10449093;28;20222;-74
2021/07/15 11:00:58;;;;;;;0.50;0.50;;;21.10;41.50;;;;;;10437080;28;20226;-74
2021/07/15 11:06:01;;;;;;;0.50;0.50;;;21.00;41.90;;;;;;10433012;28;20227;-74
2021/07/15 11:11:06;;;;;;;0.43;0.43;;;21.00;41.90;;;;;;10439679;28;20696;-74
2021/07/15 11:16:09;;;;;;;0.60;0.50;;;21.00;42.00;;;;;;10432233;28;20232;-74
2021/07/15 11:21:33;;;;;;;0.50;0.50;;;20.90;42.40;;;;;;10436707;28;20236;-74
2021/07/15 11:26:41;;;;;;;0.47;0.47;;;20.80;42.50;;;;;;10452917;28;20220;-74
2021/07/15 11:31:45;;;;;;;0.60;0.60;;;20.80;42.60;;;;;;10443314;28;20231;-74
2021/07/15 11:36:48;;;;;;;0.50;0.50;;;20.90;42.60;;;;;;10431042;28;20352;-74
2021/07/15 11:41:53;;;;;;;0.70;0.70;;;20.90;42.90;;;;;;10442338;28;20241;-74
2021/07/15 11:46:56;;;;;;;0.40;0.40;;;21.10;43.20;;;;;;10443688;28;20751;-74
2021/07/15 11:52:04;;;;;;;0.53;0.53;;;21.20;42.80;;;;;;10432319;28;20244;-74
2021/07/15 11:57:37;;;;;;;0.50;0.50;;;21.40;42.60;;;;;;10447606;28;20245;-74
2021/07/15 12:02:42;;;;;;;0.53;0.50;;;21.60;42.30;;;;;;10416511;28;20228;-74
2021/07/15 12:07:49;;;;;;;0.40;0.40;;;21.70;42.00;;;;;;10432422;28;20222;-74
2021/07/15 12:12:54;;;;;;;0.57;0.50;;;21.90;41.60;;;;;;10431606;28;20225;-75
2021/07/15 12:17:59;;;;;;;0.53;0.53;;;22.00;42.20;;;;;;10450229;28;20591;-74
2021/07/15 12:23:04;;;;;;;0.57;0.57;;;22.10;41.00;;;;;;10438973;28;20286;-72
2021/07/15 12:28:10;;;;;;;1.23;0.70;;;22.10;41.00;;;;;;10444066;28;20236;-75
2021/07/15 12:33:15;;;;;;;0.50;0.50;;;22.10;40.60;;;;;;10439539;28;20236;-75
2021/07/15 12:38:26;;;;;;;0.50;0.50;;;22.10;40.90;;;;;;10451581;28;20228;-74
2021/07/15 12:43:40;;;;;;;0.50;0.50;;;22.00;40.60;;;;;;10432176;28;20228;-74
2021/07/15 12:48:45;;;;;;;0.50;0.50;;;22.10;40.90;;;;;;10445301;28;20776;-75
2021/07/15 12:53:50;;;;;;;0.50;0.50;;;22.20;40.90;;;;;;10445659;28;20221;-74
2021/07/15 12:59:03;;;;;;;0.60;0.60;;;22.20;40.80;;;;;;10443393;28;20235;-75
2021/07/15 13:04:10;;;;;;;0.50;0.50;;;22.30;40.70;;;;;;10442328;28;20807;-74
2021/07/15 13:09:20;;;;;;;0.60;0.60;;;22.30;40.50;;;;;;10449246;28;20614;-74
2021/07/15 13:14:25;;;;;;;0.50;0.50;;;22.40;40.50;;;;;;10437428;28;20593;-75
2021/07/15 13:19:36;;;;;;;0.50;0.50;;;22.40;40.50;;;;;;10445939;28;20267;-75
2021/07/15 13:24:41;;;;;;;0.60;0.60;;;22.30;40.00;;;;;;10447232;28;20228;-75
2021/07/15 13:29:47;;;;;;;0.70;0.70;;;22.40;40.80;;;;;;10433023;28;20236;-75
2021/07/15 13:34:52;;;;;;;0.60;0.50;;;22.40;40.40;;;;;;10437571;28;20736;-75
2021/07/15 13:39:58;;;;;;;0.57;0.57;;;22.50;40.80;;;;;;10446954;28;20229;-75
2021/07/15 13:45:07;;;;;;;0.70;0.70;;;22.60;40.40;;;;;;10444089;28;20228;-75
2021/07/15 13:50:13;;;;;;;0.50;0.50;;;22.70;39.70;;;;;;10441405;28;20221;-74
2021/07/15 13:55:18;;;;;;;0.50;0.50;;;22.80;40.00;;;;;;10456057;28;20228;-74
2021/07/15 14:00:26;;;;;;;0.60;0.60;;;23.00;39.10;;;;;;10455000;28;20237;-74
2021/07/15 14:05:32;;;;;;;0.60;0.60;;;23.20;39.30;;;;;;10448315;28;20249;-74
2021/07/15 14:10:37;;;;;;;0.70;0.70;;;23.30;39.40;;;;;;10456235;28;20220;-74
2021/07/15 14:15:43;;;;;;;0.73;0.73;;;23.50;39.60;;;;;;10446178;28;20782;-73
2021/07/15 14:20:49;;;;;;;0.63;0.63;;;23.70;39.10;;;;;;10449895;28;20228;-74
2021/07/15 14:25:55;;;;;;;0.67;0.67;;;23.80;38.70;;;;;;10453302;28;20611;-76
2021/07/15 14:31:01;;;;;;;0.60;0.60;;;23.90;38.80;;;;;;10443960;28;20240;-75
2021/07/15 14:36:04;;;;;;;0.70;0.70;;;24.10;38.60;;;;;;10452899;28;20231;-74
2021/07/15 14:41:07;;;;;;;0.60;0.60;;;24.20;38.70;;;;;;10448012;28;20225;-74
2021/07/15 14:46:11;;;;;;;0.80;0.80;;;24.20;38.20;;;;;;10450463;28;20796;-74
2021/07/15 14:51:15;;;;;;;0.70;0.70;;;24.20;37.60;;;;;;10450755;28;20232;-74
2021/07/15 14:56:23;;;;;;;0.70;0.70;;;24.20;38.40;;;;;;10439593;28;20311;-75
2021/07/15 15:01:27;;;;;;;0.70;0.70;;;24.20;38.40;;;;;;10443662;28;20224;-75
2021/07/15 15:06:31;;;;;;;0.70;0.70;;;24.30;37.80;;;;;;10450992;28;20256;-74
2021/07/15 15:11:34;;;;;;;1.13;0.60;;;24.20;38.00;;;;;;10445316;28;20233;-72
2021/07/15 15:16:38;;;;;;;0.63;0.63;;;24.20;37.90;;;;;;10437054;28;20227;-70
2021/07/15 15:21:42;;;;;;;1.03;0.70;;;24.20;37.50;;;;;;10440853;28;20650;-70
2021/07/15 15:26:45;;;;;;;0.70;0.70;;;24.10;37.70;;;;;;10438426;28;20229;-70
2021/07/15 15:31:50;;;;;;;0.70;0.70;;;24.10;37.90;;;;;;10446256;28;20240;-69
2021/07/15 15:36:54;;;;;;;1.43;0.80;;;24.10;37.50;;;;;;10444376;28;20274;-69
2021/07/15 15:41:58;;;;;;;1.53;0.70;;;24.10;37.90;;;;;;10445784;28;20714;-69
2021/07/15 15:47:09;;;;;;;5.47;1.20;;;24.10;37.90;;;;;;10449770;28;20582;-69
2021/07/15 15:52:15;;;;;;;0.70;0.60;;;24.10;36.90;;;;;;10442844;28;20220;-71
2021/07/15 15:57:18;;;;;;;0.70;0.70;;;24.20;37.60;;;;;;10444648;28;20594;-68
2021/07/15 16:02:24;;;;;;;0.70;0.70;;;24.20;38.10;;;;;;10447002;28;20233;-68
2021/07/15 16:07:29;;;;;;;0.70;0.70;;;24.30;38.10;;;;;;10440820;28;20237;-69
2021/07/15 16:12:33;;;;;;;0.97;0.80;;;24.30;38.40;;;;;;10448249;28;20235;-73
2021/07/15 16:17:39;;;;;;;0.90;0.90;;;24.30;38.40;;;;;;10444070;28;20232;-74
2021/07/15 16:22:43;;;;;;;0.77;0.77;;;24.30;38.40;;;;;;10442360;28;20232;-74
2021/07/15 16:27:47;;;;;;;0.83;0.83;;;24.20;38.00;;;;;;10443195;28;20221;-75
2021/07/15 16:32:53;;;;;;;0.80;0.80;;;24.00;38.50;;;;;;10449125;28;20232;-75
2021/07/15 16:37:56;;;;;;;1.57;0.70;;;23.70;38.70;;;;;;10431165;28;20232;-75
2021/07/15 16:42:59;;;;;;;0.70;0.70;;;23.40;39.20;;;;;;10434092;28;20230;-75
2021/07/15 16:48:04;;;;;;;1.73;0.97;;;23.20;39.30;;;;;;10429443;28;20225;-74
2021/07/15 16:53:07;;;;;;;1.60;1.00;;;23.00;39.80;;;;;;10437311;28;20225;-75
2021/07/15 16:58:11;;;;;;;1.73;0.80;;;22.90;39.70;;;;;;10438919;28;20283;-74
2021/07/15 17:03:17;;;;;;;0.90;0.90;;;22.70;40.20;;;;;;10442986;28;20256;-74
2021/07/15 17:08:21;;;;;;;1.07;1.00;;;22.50;40.80;;;;;;10442642;28;20245;-74
2021/07/15 17:13:24;;;;;;;1.17;0.80;;;22.50;41.10;;;;;;10450948;28;20228;-74
2021/07/15 17:18:29;;;;;;;0.97;0.90;;;22.40;40.80;;;;;;10441274;28;20596;-74
2021/07/15 17:23:33;;;;;;;1.27;0.90;;;22.40;41.90;;;;;;10439735;28;20236;-74
2021/07/15 17:28:37;;;;;;;2.03;0.90;;;22.50;41.80;;;;;;10442015;28;20217;-75
2021/07/15 17:33:43;;;;;;;1.03;0.80;;;22.50;41.80;;;;;;10446422;28;20602;-74
2021/07/15 17:38:47;;;;;;;0.70;0.67;;;22.50;42.30;;;;;;10435155;28;20212;-73
2021/07/15 17:43:50;;;;;;;1.80;0.70;;;22.60;41.80;;;;;;10433106;28;20222;-74
2021/07/15 17:48:54;;;;;;;0.50;0.50;;;22.60;41.60;;;;;;10432892;28;20230;-74
2021/07/15 17:53:58;;;;;;;2.00;0.97;;;22.70;42.20;;;;;;10441360;28;20231;-74
2021/07/15 17:59:01;;;;;;;3.37;0.90;;;22.70;42.00;;;;;;10441420;28;20226;-74
2021/07/15 18:04:05;;;;;;;1.03;0.73;;;22.70;42.00;;;;;;10440257;28;20228;-74
2021/07/15 18:09:09;;;;;;;2.87;0.97;;;22.70;42.20;;;;;;10440645;28;20727;-74
2021/07/15 18:14:12;;;;;;;0.80;0.80;;;22.80;41.90;;;;;;10440923;28;20227;-74
2021/07/15 18:19:16;;;;;;;0.80;0.80;;;22.80;41.90;;;;;;10444604;28;20328;-74
2021/07/15 18:24:19;;;;;;;0.80;0.80;;;22.80;41.90;;;;;;10437793;28;20807;-73
2021/07/15 18:29:22;;;;;;;0.93;0.90;;;22.80;41.80;;;;;;10437307;28;20233;-74
2021/07/15 18:34:27;;;;;;;1.43;1.00;;;22.80;41.80;;;;;;10435825;28;20230;-73
2021/07/15 18:39:30;;;;;;;1.17;0.80;;;22.80;42.00;;;;;;10437993;28;20243;-73
2021/07/15 18:44:34;;;;;;;0.60;0.60;;;22.80;41.80;;;;;;10427780;28;20236;-73
2021/07/15 18:49:38;;;;;;;1.03;0.70;;;22.70;41.40;;;;;;10428816;28;20930;-74
2021/07/15 18:54:42;;;;;;;0.80;0.80;;;22.60;41.80;;;;;;10426690;28;20222;-73
2021/07/15 18:59:45;;;;;;;0.80;0.80;;;22.60;41.90;;;;;;10420103;28;20236;-73
2021/07/15 19:04:49;;;;;;;1.50;0.87;;;22.50;42.30;;;;;;10424618;28;20900;-73
2021/07/15 19:09:52;;;;;;;0.87;0.87;;;22.50;42.60;;;;;;10427059;28;20237;-74
2021/07/15 19:14:56;;;;;;;1.37;1.10;;;22.40;42.10;;;;;;10432262;28;20220;-74
2021/07/15 19:20:00;;;;;;;1.03;1.03;;;22.30;42.20;;;;;;10431963;28;20224;-74
2021/07/15 19:25:05;;;;;;;1.80;0.93;;;22.30;42.90;;;;;;10422849;28;20240;-73
2021/07/15 19:30:11;;;;;;;1.03;0.90;;;22.20;42.90;;;;;;10443945;28;20234;-72
2021/07/15 19:35:17;;;;;;;0.90;0.90;;;22.20;43.30;;;;;;10431811;28;20488;-72
2021/07/15 19:40:22;;;;;;;1.27;1.20;;;22.20;43.40;;;;;;10442437;28;20221;-73
2021/07/15 19:45:26;;;;;;;2.97;1.20;;;22.20;43.30;;;;;;10435605;28;20896;-73
2021/07/15 19:50:32;;;;;;;1.00;0.90;;;22.20;43.30;;;;;;10438784;28;20688;-73
2021/07/15 19:55:35;;;;;;;3.67;1.40;;;22.20;43.70;;;;;;10434457;28;20225;-73
2021/07/15 20:00:39;;;;;;;1.20;1.13;;;22.10;43.30;;;;;;10440005;28;20596;-73
2021/07/15 20:05:50;;;;;;;1.10;1.10;;;22.10;43.30;;;;;;10434313;28;20717;-73
2021/07/15 20:10:54;;;;;;;0.80;0.80;;;22.10;43.60;;;;;;10434451;28;20229;-73
2021/07/15 20:15:57;;;;;;;1.00;1.00;;;22.00;43.00;;;;;;10428570;28;20236;-73
2021/07/15 20:21:02;;;;;;;1.13;1.03;;;21.90;43.10;;;;;;10442806;28;20732;-73
2021/07/15 20:26:05;;;;;;;1.47;1.30;;;21.90;43.50;;;;;;10434219;28;20864;-73
2021/07/15 20:31:09;;;;;;;1.37;1.27;;;21.80;43.20;;;;;;10441330;28;20736;-73
2021/07/15 20:36:13;;;;;;;1.37;1.17;;;21.80;43.40;;;;;;10443560;28;20236;-73
2021/07/15 20:41:16;;;;;;;2.77;1.10;;;21.80;43.70;;;;;;10444436;28;20225;-73
2021/07/15 20:46:20;;;;;;;1.40;1.30;;;21.70;43.30;;;;;;10441589;28;20290;-72
2021/07/15 20:51:25;;;;;;;1.73;1.27;;;21.60;43.60;;;;;;10444627;28;20230;-73
2021/07/15 20:56:28;;;;;;;1.00;1.00;;;21.50;44.00;;;;;;10443487;28;20231;-73
2021/07/15 21:01:31;;;;;;;1.30;1.20;;;21.50;43.90;;;;;;10443235;28;20685;-73
2021/07/15 21:06:36;;;;;;;1.77;1.40;;;21.50;44.00;;;;;;10451377;28;20308;-73
2021/07/15 21:11:40;;;;;;;3.47;1.70;;;21.50;44.40;;;;;;10440423;28;20594;-73
2021/07/15 21:16:43;;;;;;;1.60;1.50;;;21.40;44.30;;;;;;10444567;28;20727;-73
2021/07/15 21:21:47;;;;;;;1.97;1.40;;;21.40;44.20;;;;;;10440026;28;21748;-73
2021/07/15 21:26:51;;;;;;;1.30;1.20;;;21.40;44.70;;;;;;10434822;28;20868;-73
2021/07/15 21:31:54;;;;;;;1.73;1.60;;;21.30;44.40;;;;;;10440551;28;20233;-73
2021/07/15 21:36:59;;;;;;;2.03;1.30;;;21.40;44.60;;;;;;10440624;28;20255;-73
2021/07/15 21:42:03;;;;;;;1.97;1.63;;;21.40;44.90;;;;;;10445889;28;20225;-73
2021/07/15 21:47:06;;;;;;;1.37;1.27;;;21.40;44.70;;;;;;10453160;28;20859;-72
2021/07/15 21:52:11;;;;;;;1.50;1.40;;;21.40;44.70;;;;;;10453903;28;20225;-73
2021/07/15 21:57:14;;;;;;;3.67;1.37;;;21.40;45.10;;;;;;10446712;28;20574;-73
2021/07/15 22:02:18;;;;;;;2.03;1.57;;;21.40;44.80;;;;;;10446189;28;20710;-73
2021/07/15 22:07:24;;;;;;;2.20;1.70;;;21.40;44.80;;;;;;10457890;28;20232;-73
2021/07/15 22:12:27;;;;;;;2.10;1.60;;;21.40;45.20;;;;;;10451528;28;20259;-73
2021/07/15 22:17:31;;;;;;;4.33;1.80;;;21.40;44.80;;;;;;10447493;28;20229;-73
2021/07/15 22:22:35;;;;;;;1.43;1.33;;;21.30;44.80;;;;;;10447518;28;20225;-73
2021/07/15 22:27:39;;;;;;;3.03;1.33;;;21.30;45.30;;;;;;10444147;28;20629;-73
2021/07/15 22:32:42;;;;;;;2.73;1.60;;;21.30;45.00;;;;;;10450759;28;20726;-68
2021/07/15 22:37:47;;;;;;;3.87;1.43;;;21.30;45.30;;;;;;10450294;28;20232;-69
2021/07/15 22:42:51;;;;;;;1.87;1.30;;;21.30;45.80;;;;;;10447002;28;20607;-68
2021/07/15 22:47:54;;;;;;;3.27;1.60;;;21.30;45.20;;;;;;10449475;28;20221;-68
2021/07/15 22:52:59;;;;;;;2.07;1.73;;;21.30;45.40;;;;;;10454808;28;20238;-68
2021/07/15 22:58:03;;;;;;;2.00;1.83;;;21.30;45.70;;;;;;10452233;28;20227;-69
2021/07/15 23:03:07;;;;;;;2.10;1.40;;;21.30;45.20;;;;;;10451424;28;20418;-68
2021/07/15 23:08:12;;;;;;;2.77;1.50;;;21.30;45.00;;;;;;10446566;28;20239;-68
2021/07/15 23:13:15;;;;;;;3.50;1.50;;;21.20;45.50;;;;;;10457017;28;20237;-68
2021/07/15 23:18:18;;;;;;;3.47;1.63;;;21.20;45.10;;;;;;10423884;28;20242;-68
2021/07/15 23:23:24;;;;;;;7.97;2.03;;;21.20;45.30;;;;;;10440969;28;20233;-68
2021/07/15 23:28:27;;;;;;;4.83;1.40;;;21.30;45.70;;;;;;10440494;28;20225;-68
2021/07/15 23:33:34;;;;;;;3.23;1.40;;;21.20;45.40;;;;;;10457869;28;20224;-68
2021/07/15 23:38:38;;;;;;;3.13;1.47;;;21.20;45.40;;;;;;10444722;28;20234;-68
2021/07/15 23:43:41;;;;;;;3.70;1.30;;;21.30;45.70;;;;;;10457139;28;20225;-68
2021/07/15 23:48:44;;;;;;;3.80;1.60;;;21.20;45.30;;;;;;10455780;28;20233;-68
2021/07/15 23:53:49;;;;;;;1.40;1.30;;;21.20;46.10;;;;;;10438475;28;20240;-68
2021/07/15 23:58:52;;;;;;;2.10;1.10;;;21.20;45.80;;;;;;10454944;28;20224;-68
